Time;durP1;ratioP1;P1;durP2;ratioP2;P2;SDS_P1;SDS_P2;PMS_P1;PMS_P2;Temp;Humidity;BMP_temperature;BMP_pressure;BME280_temperature;BME280_humidity;BME280_pressure;Samples;Min_cycle;Max_cycle;Signal;HPM_P1;HPM_P2
2022/08/18 00:02:15;;;;;;;;;;;;;;;-144.99;100.00;52142.38;5081748;28;19924;-77
2022/08/18 00:04:43;;;;;;;;;;;;;;;-144.99;100.00;52174.97;5078611;28;20276;-77
2022/08/18 00:07:10;;;;;;;;;;;;;;;-144.99;100.00;52162.75;5083194;28;19964;-75
2022/08/18 00:09:38;;;;;;;;;;;;;;;-144.99;100.00;52142.38;5077800;28;19935;-76
2022/08/18 00:12:08;;;;;;;;;;;;;;;-144.99;100.00;52152.56;4726263;28;10000584;-77
2022/08/18 00:14:34;;;;;;;;;;;;;;;-144.99;100.00;52154.59;5087805;28;19956;-76
2022/08/18 00:17:00;;;;;;;;;;;;;;;-144.99;100.00;52146.44;5089890;28;20015;-76
2022/08/18 00:19:27;;;;;;;;;;;;;;;-144.99;100.00;52183.13;5090436;28;19924;-77
2022/08/18 00:21:55;;;;;;;;;;;;;;;-144.99;100.00;52166.81;5071037;28;19999;-78
2022/08/18 00:24:21;;;;;;;;;;;;;;;-144.99;100.00;52146.44;5084062;28;19962;-78
2022/08/18 00:26:48;;;;;;;;;;;;;;;-144.99;100.00;52170.91;5083718;28;19920;-76
2022/08/18 00:29:14;;;;;;;;;;;;;;;-144.99;100.00;52177.00;5090830;28;19920;-78
2022/08/18 00:31:41;;;;;;;;;;;;;;;-144.99;100.00;52166.81;5090526;28;19920;-76
2022/08/18 00:34:07;;;;;;;;;;;;;;;-144.99;100.00;52187.19;5089283;28;19963;-77
2022/08/18 00:36:34;;;;;;;;;;;;;;;-144.99;100.00;52146.44;5088905;28;20597;-77
2022/08/18 00:39:02;;;;;;;;;;;;;;;-144.99;100.00;52185.16;5086860;28;20425;-77
2022/08/18 00:41:28;;;;;;;;;;;;;;;-144.99;100.00;52174.97;5081674;28;19956;-77
2022/08/18 00:43:57;;;;;;;;;;;;;;;-144.99;100.00;52189.25;5086852;28;19920;-78
2022/08/18 00:46:25;;;;;;;;;;;;;;;-144.99;100.00;52191.28;5087542;28;19930;-78
2022/08/18 00:48:52;;;;;;;;;;;;;;;-144.99;100.00;52185.16;5092734;28;20505;-79
2022/08/18 00:51:20;;;;;;;;;;;;;;;-144.99;100.00;52146.44;5090209;28;19946;-77
2022/08/18 00:53:50;;;;;;;;;;;;;;;-144.99;100.00;52154.59;5086720;28;20472;-78
2022/08/18 00:56:21;;;;;;;;;;;;;;;-144.99;100.00;52177.00;5084355;28;20434;-76
2022/08/18 00:58:50;;;;;;;;;;;;;;;-144.99;100.00;52170.91;5089549;28;19928;-77
2022/08/18 01:01:19;;;;;;;;;;;;;;;-144.99;100.00;52170.91;5086900;28;19924;-76
2022/08/18 01:03:52;;;;;;;;;;;;;;;-144.99;100.00;52166.81;5085779;28;19935;-76
2022/08/18 01:06:23;;;;;;;;;;;;;;;-144.99;100.00;52166.81;5085795;28;20024;-73
2022/08/18 01:08:50;;;;;;;;;;;;;;;-144.99;100.00;52179.06;5079915;28;20210;-74
2022/08/18 01:11:17;;;;;;;;;;;;;;;-144.99;100.00;52211.66;5087111;28;19924;-74
2022/08/18 01:13:44;;;;;;;;;;;;;;;-144.99;100.00;52138.28;5084833;28;20336;-73
2022/08/18 01:21:50;;;;;;;;;;;;;;;-144.99;100.00;52156.63;5086527;28;19986;-74
2022/08/18 01:24:19;;;;;;;;;;;;;;;-144.99;100.00;52187.19;5088343;28;19928;-74
2022/08/18 01:26:48;;;;;;;;;;;;;;;-144.99;100.00;52166.81;5082184;28;20636;-75
2022/08/18 01:29:16;;;;;;;;;;;;;;;-144.99;100.00;52181.09;5078333;28;19931;-75
2022/08/18 01:31:48;;;;;;;;;;;;;;;-144.99;100.00;52183.13;5083773;28;20306;-73
2022/08/18 01:34:16;;;;;;;;;;;;;;;-144.99;100.00;52193.31;5088679;28;19928;-74
2022/08/18 01:36:42;;;;;;;;;;;;;;;-144.99;100.00;52195.34;5080519;28;19928;-75
2022/08/18 01:39:10;;;;;;;;;;;;;;;-144.99;100.00;52158.66;5076887;28;20043;-76
2022/08/18 01:41:39;;;;;;;;;;;;;;;-144.99;100.00;52199.44;4738507;28;10000078;-75
2022/08/18 01:44:07;;;;;;;;;;;;;;;-144.99;100.00;52179.06;5086072;28;20152;-76
2022/08/18 01:46:34;;;;;;;;;;;;;;;-144.99;100.00;52189.25;5083633;28;19924;-75
2022/08/18 01:49:02;;;;;;;;;;;;;;;-144.99;100.00;52148.47;5079891;28;19921;-73
2022/08/18 01:51:30;;;;;;;;;;;;;;;-144.99;100.00;52187.19;5090709;28;19970;-72
2022/08/18 01:53:57;;;;;;;;;;;;;;;-144.99;100.00;52211.66;5088922;28;19963;-74
2022/08/18 01:56:25;;;;;;;;;;;;;;;-144.99;100.00;52170.91;5082579;28;20015;-75
2022/08/18 01:58:54;;;;;;;;;;;;;;;-144.99;100.00;52170.91;5079760;28;20395;-73
2022/08/18 02:01:21;;;;;;;;;;;;;;;-144.99;100.00;52162.75;5088121;28;19924;-73
2022/08/18 02:03:49;;;;;;;;;;;;;;;-144.99;100.00;52187.19;5080705;28;19969;-74
2022/08/18 02:06:17;;;;;;;;;;;;;;;-144.99;100.00;52183.13;5088235;28;19928;-73
2022/08/18 02:08:44;;;;;;;;;;;;;;;-144.99;100.00;52166.81;5084760;28;19926;-73
2022/08/18 02:11:10;;;;;;;;;;;;;;;-144.99;100.00;52187.19;5087950;28;20390;-74
2022/08/18 02:13:37;;;;;;;;;;;;;;;-144.99;100.00;52195.34;5078623;28;19935;-73
2022/08/18 02:16:05;;;;;;;;;;;;;;;-144.99;100.00;52191.28;5089981;28;19929;-74
2022/08/18 02:18:34;;;;;;;;;;;;;;;-144.99;100.00;52170.91;5086853;28;19921;-75
2022/08/18 02:21:07;;;;;;;;;;;;;;;-144.99;100.00;52156.63;5087992;28;19942;-75
2022/08/18 02:23:33;;;;;;;;;;;;;;;-144.99;100.00;52187.19;5091541;28;19927;-74
2022/08/18 02:26:03;;;;;;;;;;;;;;;-144.99;100.00;52187.19;5091004;28;19920;-75
2022/08/18 02:28:29;;;;;;;;;;;;;;;-144.99;100.00;52152.56;5090084;28;19940;-76
2022/08/18 02:30:56;;;;;;;;;;;;;;;-144.99;100.00;52187.19;5090976;28;20003;-76
2022/08/18 02:33:24;;;;;;;;;;;;;;;-144.99;100.00;52183.13;5096145;28;19983;-76
2022/08/18 02:35:51;;;;;;;;;;;;;;;-144.99;100.00;52195.34;5094574;28;19926;-79
2022/08/18 02:38:17;;;;;;;;;;;;;;;-144.99;100.00;52203.50;5092310;28;20389;-75
2022/08/18 02:40:45;;;;;;;;;;;;;;;-144.99;100.00;52215.75;5086293;28;19920;-75
2022/08/18 02:43:11;;;;;;;;;;;;;;;-144.99;100.00;52179.06;5079589;28;20375;-74
2022/08/18 02:45:38;;;;;;;;;;;;;;;-144.99;100.00;52195.34;5070919;28;20022;-76
2022/08/18 02:48:05;;;;;;;;;;;;;;;-144.99;100.00;52154.59;5090970;28;19924;-77
2022/08/18 02:50:33;;;;;;;;;;;;;;;-144.99;100.00;52191.28;5081793;28;19920;-77
2022/08/18 02:53:01;;;;;;;;;;;;;;;-144.99;100.00;52174.97;5091894;28;19942;-77
2022/08/18 02:55:28;;;;;;;;;;;;;;;-144.99;100.00;52197.41;5087189;28;19955;-76
2022/08/18 02:57:54;;;;;;;;;;;;;;;-144.99;100.00;52203.50;5092193;28;19988;-76
2022/08/18 03:00:21;;;;;;;;;;;;;;;-144.99;100.00;52187.19;5085220;28;20387;-78
2022/08/18 03:02:47;;;;;;;;;;;;;;;-144.99;100.00;52181.09;5087832;28;19992;-77
2022/08/18 03:05:14;;;;;;;;;;;;;;;-144.99;100.00;52193.31;5091446;28;20001;-77
2022/08/18 03:07:42;;;;;;;;;;;;;;;-144.99;100.00;52203.50;5093480;28;20007;-77
2022/08/18 03:10:09;;;;;;;;;;;;;;;-144.99;100.00;52191.28;5100403;28;19920;-78
2022/08/18 03:12:35;;;;;;;;;;;;;;;-144.99;100.00;52179.06;5087084;28;19920;-77
2022/08/18 03:15:02;;;;;;;;;;;;;;;-144.99;100.00;52170.91;5091438;28;19939;-75
2022/08/18 03:17:28;;;;;;;;;;;;;;;-144.99;100.00;52187.19;5091364;28;20340;-77
2022/08/18 03:19:55;;;;;;;;;;;;;;;-144.99;100.00;52227.97;5088780;28;20050;-76
2022/08/18 03:22:22;;;;;;;;;;;;;;;-144.99;100.00;52181.09;5089147;28;19932;-76
2022/08/18 03:24:49;;;;;;;;;;;;;;;-144.99;100.00;52187.19;5091819;28;20287;-77
2022/08/18 03:27:16;;;;;;;;;;;;;;;-144.99;100.00;52195.34;5079223;28;19921;-78
2022/08/18 03:29:42;;;;;;;;;;;;;;;-144.99;100.00;52164.78;5082679;28;19927;-77
2022/08/18 03:32:09;;;;;;;;;;;;;;;-144.99;100.00;52166.81;5090184;28;19920;-78
2022/08/18 03:34:35;;;;;;;;;;;;;;;-144.99;100.00;52219.81;5093242;28;19920;-78
2022/08/18 03:37:02;;;;;;;;;;;;;;;-144.99;100.00;52199.44;5089364;28;20019;-78
2022/08/18 03:39:29;;;;;;;;;;;;;;;-144.99;100.00;52195.34;5095947;28;20014;-78
2022/08/18 03:41:57;;;;;;;;;;;;;;;-144.99;100.00;52164.78;5086508;28;19938;-76
2022/08/18 03:44:24;;;;;;;;;;;;;;;-144.99;100.00;52199.44;5082742;28;19920;-76
2022/08/18 03:46:50;;;;;;;;;;;;;;;-144.99;100.00;52211.66;5085042;28;20371;-76
2022/08/18 03:49:17;;;;;;;;;;;;;;;-144.99;100.00;52187.19;5091834;28;19920;-75
2022/08/18 03:51:45;;;;;;;;;;;;;;;-144.99;100.00;52215.75;5090354;28;19924;-75
2022/08/18 03:54:14;;;;;;;;;;;;;;;-144.99;100.00;52223.88;5087157;28;19932;-75
2022/08/18 03:56:41;;;;;;;;;;;;;;;-144.99;100.00;52207.59;5092952;28;19920;-75
2022/08/18 03:59:11;;;;;;;;;;;;;;;-144.99;100.00;52197.41;5091668;28;20019;-74
2022/08/18 04:01:39;;;;;;;;;;;;;;;-144.99;100.00;52234.09;5086183;28;19954;-73
2022/08/18 04:04:06;;;;;;;;;;;;;;;-144.99;100.00;52209.63;5091721;28;19930;-75
2022/08/18 04:06:34;;;;;;;;;;;;;;;-144.99;100.00;52191.28;5089439;28;19927;-74
2022/08/18 04:09:01;;;;;;;;;;;;;;;-144.99;100.00;52207.59;5079636;28;20008;-76
2022/08/18 04:11:28;;;;;;;;;;;;;;;-144.99;100.00;52191.28;5086609;28;20008;-74
2022/08/18 04:13:56;;;;;;;;;;;;;;;-144.99;100.00;52232.03;5094579;28;20028;-78
2022/08/18 04:16:24;;;;;;;;;;;;;;;-144.99;100.00;52215.75;5093326;28;19920;-78
2022/08/18 04:18:50;;;;;;;;;;;;;;;-144.99;100.00;52187.19;5095849;28;20010;-77
2022/08/18 04:21:17;;;;;;;;;;;;;;;-144.99;100.00;52236.13;5090516;28;19920;-77
2022/08/18 04:23:43;;;;;;;;;;;;;;;-144.99;100.00;52197.41;5083422;28;19927;-74
2022/08/18 04:26:11;;;;;;;;;;;;;;;-144.99;100.00;52162.75;5099023;28;19930;-76
2022/08/18 04:28:38;;;;;;;;;;;;;;;-144.99;100.00;52219.81;5098586;28;19983;-76
2022/08/18 04:31:06;;;;;;;;;;;;;;;-144.99;100.00;52207.59;5101767;28;19984;-76
2022/08/18 04:33:34;;;;;;;;;;;;;;;-144.99;100.00;52203.50;5107452;28;19942;-75
2022/08/18 04:36:07;;;;;;;;;;;;;;;-144.99;100.00;52209.63;5102755;28;20335;-76
2022/08/18 04:38:33;;;;;;;;;;;;;;;-144.99;100.00;52166.81;5091298;28;19967;-76
2022/08/18 04:41:00;;;;;;;;;;;;;;;-144.99;100.00;52227.97;5095177;28;20003;-76
2022/08/18 04:43:26;;;;;;;;;;;;;;;-144.99;100.00;52193.31;5093243;28;20002;-77
2022/08/18 04:45:53;;;;;;;;;;;;;;;-144.99;100.00;52203.50;5102589;28;19999;-76
2022/08/18 04:48:20;;;;;;;;;;;;;;;-144.99;100.00;52219.81;5092399;28;20220;-78
2022/08/18 04:50:48;;;;;;;;;;;;;;;-144.99;100.00;52193.31;5104902;28;19966;-76
2022/08/18 04:55:58;;;;;;;;;;;;;;;-144.99;100.00;52191.28;5096593;28;19986;-75
2022/08/18 04:58:25;;;;;;;;;;;;;;;-144.99;100.00;52170.91;5095973;28;19974;-76
2022/08/18 05:00:57;;;;;;;;;;;;;;;-144.99;100.00;52146.44;5090327;28;19930;-75
2022/08/18 05:03:25;;;;;;;;;;;;;;;-144.99;100.00;52187.19;5082366;28;20469;-76
2022/08/18 05:05:53;;;;;;;;;;;;;;;-144.99;100.00;52195.34;5081077;28;19930;-75
2022/08/18 05:08:21;;;;;;;;;;;;;;;-144.99;100.00;52219.81;5083801;28;20015;-73
2022/08/18 05:10:47;;;;;;;;;;;;;;;-144.99;100.00;52203.50;5081365;28;19976;-75
2022/08/18 05:13:17;;;;;;;;;;;;;;;-144.99;100.00;52170.91;5087369;28;19931;-77
2022/08/18 05:15:43;;;;;;;;;;;;;;;-144.99;100.00;52166.81;5095289;28;20370;-75
2022/08/18 05:18:10;;;;;;;;;;;;;;;-144.99;100.00;52134.22;5096157;28;19924;-74
2022/08/18 05:20:39;;;;;;;;;;;;;;;-144.99;100.00;52181.09;5093324;28;19927;-72
2022/08/18 05:23:07;;;;;;;;;;;;;;;-144.99;100.00;52203.50;5093708;28;20095;-72
2022/08/18 05:25:35;;;;;;;;;;;;;;;-144.99;100.00;52174.97;5090638;28;19920;-72
2022/08/18 05:28:01;;;;;;;;;;;;;;;-144.99;100.00;52179.06;5091384;28;19971;-72
2022/08/18 05:30:28;;;;;;;;;;;;;;;-144.99;100.00;52195.34;5086385;28;20382;-73
2022/08/18 05:32:54;;;;;;;;;;;;;;;-144.99;100.00;52160.72;5092050;28;19988;-75
2022/08/18 05:35:23;;;;;;;;;;;;;;;-144.99;100.00;52156.63;5087546;28;20382;-74
2022/08/18 05:38:16;;;;;;;;;;;;;;;-144.99;100.00;52187.19;5091938;28;19924;-75
2022/08/18 05:40:46;;;;;;;;;;;;;;;-144.99;100.00;52183.13;5048802;28;20020;-75
2022/08/18 05:43:14;;;;;;;;;;;;;;;-144.99;100.00;52162.75;5095845;28;19973;-75
2022/08/18 05:45:42;;;;;;;;;;;;;;;-144.99;100.00;52166.81;5085591;28;19924;-74
2022/08/18 05:48:09;;;;;;;;;;;;;;;-144.99;100.00;52170.91;5097086;28;20302;-74
2022/08/18 05:50:37;;;;;;;;;;;;;;;-144.99;100.00;52152.56;5094901;28;19942;-74
2022/08/18 05:53:06;;;;;;;;;;;;;;;-144.99;100.00;52219.81;5095006;28;19979;-77
2022/08/18 05:58:22;;;;;;;;;;;;;;;-144.99;100.00;52162.75;5093846;28;19927;-77
2022/08/18 06:00:52;;;;;;;;;;;;;;;-144.99;100.00;52166.81;5093516;28;19935;-77
2022/08/18 06:03:21;;;;;;;;;;;;;;;-144.99;100.00;52128.09;5100644;28;19928;-78
2022/08/18 06:05:52;;;;;;;;;;;;;;;-144.99;100.00;52136.25;5087005;28;19921;-76
2022/08/18 06:08:21;;;;;;;;;;;;;;;-144.99;99.90;52134.22;5089173;28;20384;-77
2022/08/18 06:10:49;;;;;;;;;;;;;;;-144.99;98.96;52166.81;5088479;28;19959;-77
2022/08/18 06:13:17;;;;;;;;;;;;;;;-144.99;98.58;52156.63;5088791;28;19974;-76
2022/08/18 06:15:50;;;;;;;;;;;;;;;-144.99;98.00;52170.91;5092392;28;20374;-76
2022/08/18 06:18:24;;;;;;;;;;;;;;;-144.99;98.59;52146.44;5092741;28;19999;-74
2022/08/18 06:21:05;;;;;;;;;;;;;;;-144.99;99.32;52174.97;5093597;28;19924;-73
2022/08/18 06:23:35;;;;;;;;;;;;;;;-144.99;99.44;52187.19;5090648;28;19926;-75
2022/08/18 06:26:09;;;;;;;;;;;;;;;-144.99;98.97;52158.66;5090059;28;20010;-74
2022/08/18 06:28:42;;;;;;;;;;;;;;;-144.99;99.32;52142.38;5085686;28;20532;-73
2022/08/18 06:31:16;;;;;;;;;;;;;;;-144.99;98.12;52130.13;5086707;28;19928;-76
2022/08/18 06:33:49;;;;;;;;;;;;;;;-144.99;98.28;52126.06;5091141;28;20058;-73
2022/08/18 06:36:20;;;;;;;;;;;;;;;-144.99;98.28;52146.44;5086370;28;20276;-73
2022/08/18 06:38:52;;;;;;;;;;;;;;;-144.99;99.50;52142.38;5083501;28;20535;-73
2022/08/18 06:41:20;;;;;;;;;;;;;;;-144.99;100.00;52174.97;5091215;28;19976;-74
2022/08/18 06:43:58;;;;;;;;;;;;;;;-144.99;100.00;52174.97;5092667;28;19920;-76
2022/08/18 06:46:32;;;;;;;;;;;;;;;-144.99;99.35;52109.75;5088735;28;19920;-75
2022/08/18 06:49:03;;;;;;;;;;;;;;;-144.99;98.61;52162.75;5093510;28;20431;-74
2022/08/18 06:51:29;;;;;;;;;;;;;;;-144.99;100.00;52185.16;5086093;28;19925;-74
2022/08/18 06:53:57;;;;;;;;;;;;;;;-144.99;100.00;52142.38;5089714;28;19926;-75
2022/08/18 06:56:26;;;;;;;;;;;;;;;-144.99;100.00;52121.97;5088684;28;19942;-75
2022/08/18 06:58:54;;;;;;;;;;;;;;;-144.99;100.00;52183.13;5089425;28;19974;-76
2022/08/18 07:01:22;;;;;;;;;;;;;;;-144.99;100.00;52191.28;5088451;28;20372;-74
2022/08/18 07:03:53;;;;;;;;;;;;;;;-144.99;100.00;52179.06;5082953;28;19934;-73
2022/08/18 07:06:29;;;;;;;;;;;;;;;-144.99;100.00;52181.09;5093159;28;19928;-71
2022/08/18 07:09:16;;;;;;;;;;;;;;;-144.99;100.00;52166.81;5086021;28;19999;-74
2022/08/18 07:11:57;;;;;;;;;;;;;;;-144.99;100.00;52168.84;5093950;28;19924;-71
2022/08/18 07:14:24;;;;;;;;;;;;;;;-144.99;100.00;52185.16;5094744;28;19931;-73
2022/08/18 07:16:50;;;;;;;;;;;;;;;-144.99;100.00;52195.34;5092600;28;19963;-71
2022/08/18 07:19:20;;;;;;;;;;;;;;;-144.99;100.00;52160.72;5091298;28;19920;-74
2022/08/18 07:21:47;;;;;;;;;;;;;;;-144.99;100.00;52195.34;5089493;28;19926;-73
2022/08/18 07:24:22;;;;;;;;;;;;;;;-144.99;100.00;52166.81;5095034;28;19920;-71
2022/08/18 07:26:59;;;;;;;;;;;;;;;-144.99;100.00;52191.28;5087285;28;20289;-72
2022/08/18 07:29:26;;;;;;;;;;;;;;;-144.99;100.00;52170.91;5083981;28;20219;-73
2022/08/18 07:31:53;;;;;;;;;;;;;;;-144.99;100.00;52203.50;5083790;28;20424;-72
2022/08/18 07:34:24;;;;;;;;;;;;;;;-144.99;100.00;52146.44;5091776;28;19920;-73
2022/08/18 07:36:53;;;;;;;;;;;;;;;-144.99;100.00;52158.66;5086053;28;19920;-74
2022/08/18 07:39:22;;;;;;;;;;;;;;;-144.99;100.00;52170.91;5084337;28;19920;-75
2022/08/18 07:41:50;;;;;;;;;;;;;;;-144.99;100.00;52170.91;5090820;28;19920;-75
2022/08/18 07:44:21;;;;;;;;;;;;;;;-144.99;100.00;52179.06;5093949;28;19920;-74
2022/08/18 07:46:51;;;;;;;;;;;;;;;-144.99;100.00;52138.28;5087736;28;20043;-74
2022/08/18 07:49:20;;;;;;;;;;;;;;;-144.99;100.00;52158.66;5089914;28;20027;-77
2022/08/18 07:51:50;;;;;;;;;;;;;;;-144.99;100.00;52162.75;5085276;28;20266;-74
2022/08/18 07:54:27;;;;;;;;;;;;;;;-144.99;100.00;52187.19;5093519;28;20371;-75
2022/08/18 07:57:00;;;;;;;;;;;;;;;-144.99;100.00;52203.50;5089202;28;19920;-76
2022/08/18 07:59:32;;;;;;;;;;;;;;;-144.99;100.00;52207.59;5084763;28;20375;-75
2022/08/18 08:02:19;;;;;;;;;;;;;;;-144.99;100.00;52179.06;5086901;28;19920;-75
2022/08/18 08:04:48;;;;;;;;;;;;;;;-144.99;100.00;52162.75;5091428;28;19931;-75
2022/08/18 08:07:19;;;;;;;;;;;;;;;-144.99;100.00;52154.59;5092736;28;19991;-74
2022/08/18 08:09:48;;;;;;;;;;;;;;;-144.99;100.00;52166.81;5083986;28;19928;-74
2022/08/18 08:12:21;;;;;;;;;;;;;;;-144.99;100.00;52195.34;5087098;28;20003;-73
2022/08/18 08:14:49;;;;;;;;;;;;;;;-144.99;100.00;52150.53;5093211;28;19926;-75
2022/08/18 08:17:23;;;;;;;;;;;;;;;-144.99;100.00;52160.72;5091013;28;20011;-74
2022/08/18 08:19:57;;;;;;;;;;;;;;;-144.99;100.00;52181.09;5091727;28;19927;-77
2022/08/18 08:22:29;;;;;;;;;;;;;;;-144.99;100.00;52154.59;5090882;28;20014;-76
2022/08/18 08:25:01;;;;;;;;;;;;;;;-144.99;100.00;52170.91;5092112;28;20007;-78
2022/08/18 08:27:33;;;;;;;;;;;;;;;-144.99;100.00;52126.06;5082502;28;20252;-77
2022/08/18 08:30:02;;;;;;;;;;;;;;;-144.99;100.00;52181.09;5088648;28;19920;-78
2022/08/18 08:32:31;;;;;;;;;;;;;;;-144.99;100.00;52174.97;5082257;28;20039;-77
2022/08/18 08:35:01;;;;;;;;;;;;;;;-144.99;100.00;52162.75;5087552;28;20015;-78
2022/08/18 08:37:33;;;;;;;;;;;;;;;-144.99;99.21;52156.63;5079557;28;19928;-76
2022/08/18 08:40:03;;;;;;;;;;;;;;;-144.99;98.39;52191.28;5087424;28;19950;-76
2022/08/18 08:42:37;;;;;;;;;;;;;;;-144.99;100.00;52199.44;5081325;28;20491;-75
2022/08/18 08:45:08;;;;;;;;;;;;;;;-144.99;100.00;52191.28;5088242;28;19919;-76
2022/08/18 08:47:36;;;;;;;;;;;;;;;-144.99;100.00;52162.75;5085373;28;19920;-76
2022/08/18 08:50:04;;;;;;;;;;;;;;;-144.99;100.00;52166.81;5090972;28;20006;-76
2022/08/18 08:52:36;;;;;;;;;;;;;;;-144.99;100.00;52126.06;5092390;28;19920;-75
2022/08/18 08:55:05;;;;;;;;;;;;;;;-144.99;98.57;52174.97;5083974;28;20309;-77
2022/08/18 08:57:34;;;;;;;;;;;;;;;-144.99;99.34;52179.06;5090766;28;19942;-76
2022/08/18 09:00:02;;;;;;;;;;;;;;;-144.99;98.23;52174.97;5093540;28;19974;-76
2022/08/18 09:02:40;;;;;;;;;;;;;;;-144.99;98.77;52179.06;5078464;28;20027;-75
2022/08/18 09:05:09;;;;;;;;;;;;;;;-144.99;96.26;52121.97;5085431;28;19920;-76
2022/08/18 09:07:44;;;;;;;;;;;;;;;-144.99;92.77;52126.06;5093301;28;20391;-77
2022/08/18 09:10:24;;;;;;;;;;;;;;;-144.99;85.04;52113.84;5092830;28;20020;-76
2022/08/18 09:12:59;;;;;;;;;;;;;;;-144.99;83.36;52097.53;5088330;28;20006;-77
2022/08/18 09:15:35;;;;;;;;;;;;;;;-144.99;80.57;52130.13;5084621;28;19959;-76
2022/08/18 09:18:17;;;;;;;;;;;;;;;-144.99;79.11;52101.59;5086246;28;20027;-76
2022/08/18 09:20:49;;;;;;;;;;;;;;;-144.99;79.09;52081.22;5073400;28;19924;-76
2022/08/18 09:23:19;;;;;;;;;;;;;;;-144.99;78.92;52093.44;5090068;28;19920;-78
2022/08/18 09:25:48;;;;;;;;;;;;;;;-144.99;80.06;52117.91;5084105;28;19920;-78
2022/08/18 09:28:16;;;;;;;;;;;;;;;-144.99;79.88;52117.91;5088493;28;19927;-77
2022/08/18 09:30:45;;;;;;;;;;;;;;;-144.99;79.64;52030.28;5092430;28;20387;-77
2022/08/18 09:33:19;;;;;;;;;;;;;;;-144.99;79.37;52113.84;5093763;28;19941;-77
2022/08/18 09:35:53;;;;;;;;;;;;;;;-144.99;78.39;52134.22;5093648;28;19966;-75
2022/08/18 09:44:08;;;;;;;;;;;;;;;-144.99;79.43;52113.84;5087543;28;19939;-77
2022/08/18 09:47:05;;;;;;;;;;;;;;;-144.99;80.32;52113.84;5084993;28;20527;-78
2022/08/18 09:49:42;;;;;;;;;;;;;;;-144.99;80.67;52109.75;5006026;28;19966;-77
2022/08/18 09:52:27;;;;;;;;;;;;;;;-144.99;81.13;52146.44;5067999;28;20023;-76
2022/08/18 09:55:00;;;;;;;;;;;;;;;-144.99;82.20;52150.53;5079061;28;20489;-77
2022/08/18 09:57:27;;;;;;;;;;;;;;;-144.99;82.17;52130.13;5088373;28;19920;-76
2022/08/18 10:00:11;;;;;;;;;;;;;;;-144.99;82.58;52085.31;5090445;28;20080;-75
2022/08/18 10:03:11;;;;;;;;;;;;;;;-144.99;80.59;52113.84;5090117;28;20024;-76
2022/08/18 10:05:38;;;;;;;;;;;;;;;-144.99;79.55;52117.91;5088233;28;19920;-77
2022/08/18 10:08:23;;;;;;;;;;;;;;;-144.99;79.95;52109.75;5092255;28;20375;-76
2022/08/18 10:10:53;;;;;;;;;;;;;;;-144.99;80.27;52183.13;5086620;28;19920;-77
2022/08/18 10:13:22;;;;;;;;;;;;;;;-144.99;80.52;52109.75;5091420;28;20333;-77
2022/08/18 10:15:57;;;;;;;;;;;;;;;-144.99;80.18;52146.44;5089051;28;19931;-77
2022/08/18 10:18:32;;;;;;;;;;;;;;;-144.99;80.73;52121.97;5095568;28;19924;-77
2022/08/18 10:21:08;;;;;;;;;;;;;;;-144.99;79.32;52142.38;5087037;28;19920;-77
2022/08/18 10:23:47;;;;;;;;;;;;;;;-144.99;78.65;52126.06;5090210;28;20003;-76
2022/08/18 10:26:32;;;;;;;;;;;;;;;-144.99;80.02;52150.53;5090112;28;19939;-75
2022/08/18 10:29:01;;;;;;;;;;;;;;;-144.99;79.27;52146.44;5083516;28;19930;-76
2022/08/18 10:31:28;;;;;;;;;;;;;;;-144.99;77.36;52117.91;5082304;28;20010;-75
2022/08/18 10:33:59;;;;;;;;;;;;;;;-144.99;77.67;52040.47;5088158;28;19984;-77
2022/08/18 10:36:36;;;;;;;;;;;;;;;-144.99;77.96;52032.31;5090940;28;19943;-77
2022/08/18 10:39:04;;;;;;;;;;;;;;;-144.99;67.75;52016.00;5085689;28;20319;-77
2022/08/18 10:41:31;;;;;;;;;;;;;;;-144.99;64.09;51991.56;5088607;28;20331;-76
2022/08/18 10:43:59;;;;;;;;;;;;;;;-144.99;62.67;51942.63;5085354;28;20324;-77
2022/08/18 10:46:28;;;;;;;;;;;;;;;-144.99;59.62;52005.81;5085362;28;19951;-78
2022/08/18 10:48:59;;;;;;;;;;;;;;;-144.99;57.49;51950.78;5088132;28;19920;-76
2022/08/18 10:51:31;;;;;;;;;;;;;;;-144.99;56.32;51983.41;5084248;28;19920;-77
2022/08/18 10:54:00;;;;;;;;;;;;;;;-144.99;54.35;52040.47;5091317;28;19920;-79
2022/08/18 10:56:31;;;;;;;;;;;;;;;-144.99;54.02;52062.88;5101291;28;20421;-77
2022/08/18 10:59:12;;;;;;;;;;;;;;;-144.99;55.17;52075.09;5106427;28;19920;-76
2022/08/18 11:01:51;;;;;;;;;;;;;;;-144.99;57.06;52117.91;5096592;28;19920;-78
2022/08/18 11:04:24;;;;;;;;;;;;;;;-144.99;58.50;52089.38;5083808;28;19921;-78
2022/08/18 11:06:55;;;;;;;;;;;;;;;-144.99;59.49;52056.78;5098832;28;19955;-78
2022/08/18 11:09:24;;;;;;;;;;;;;;;-144.99;58.94;52077.16;5097581;28;19932;-77
2022/08/18 11:11:51;;;;;;;;;;;;;;;-144.99;58.99;52032.31;5100737;28;20898;-77
2022/08/18 11:14:36;;;;;;;;;;;;;;;-144.99;58.75;52081.22;5107093;28;19997;-79
2022/08/18 11:17:10;;;;;;;;;;;;;;;-144.99;59.86;52081.22;5100228;28;19924;-77
2022/08/18 11:19:38;;;;;;;;;;;;;;;-144.99;60.45;52097.53;5101958;28;19931;-79
2022/08/18 11:22:04;;;;;;;;;;;;;;;-144.99;60.55;52097.53;5096114;28;19920;-77
2022/08/18 11:24:34;;;;;;;;;;;;;;;-144.99;60.82;52099.56;5088454;28;19920;-78
2022/08/18 11:27:01;;;;;;;;;;;;;;;-144.99;61.57;52117.91;5087859;28;19920;-78
2022/08/18 11:29:30;;;;;;;;;;;;;;;-144.99;61.15;52097.53;5087152;28;19989;-78
2022/08/18 11:31:58;;;;;;;;;;;;;;;-144.99;61.65;52130.13;5089909;28;19973;-77
2022/08/18 11:34:30;;;;;;;;;;;;;;;-144.99;61.84;52117.91;5091071;28;20042;-77
2022/08/18 11:36:58;;;;;;;;;;;;;;;-144.99;61.93;52109.75;5088980;28;19954;-78
2022/08/18 11:39:25;;;;;;;;;;;;;;;-144.99;62.49;52105.69;5088157;28;20371;-77
2022/08/18 11:41:51;;;;;;;;;;;;;;;-144.99;62.42;52085.31;5090494;28;19920;-77
2022/08/18 11:44:20;;;;;;;;;;;;;;;-144.99;62.42;51952.81;5085206;28;19920;-77
2022/08/18 11:46:47;;;;;;;;;;;;;;;-144.99;59.58;51901.88;5090063;28;19924;-76
2022/08/18 11:49:17;;;;;;;;;;;;;;;-144.99;57.87;52016.00;5089115;28;19932;-77
2022/08/18 11:51:55;;;;;;;;;;;;;;;-144.99;57.81;52052.69;5087335;28;19931;-76
2022/08/18 11:54:23;;;;;;;;;;;;;;;-144.99;56.61;52044.53;5088383;28;20426;-78
2022/08/18 11:56:49;;;;;;;;;;;;;;;-144.99;54.74;51891.69;5083787;28;19971;-77
2022/08/18 11:59:32;;;;;;;;;;;;;;;-144.99;52.93;51889.66;5090606;28;19920;-78
2022/08/18 12:01:59;;;;;;;;;;;;;;;-144.99;52.64;52024.16;5089431;28;19920;-78
2022/08/18 12:04:29;;;;;;;;;;;;;;;-144.99;53.50;52016.00;5085708;28;19939;-77
2022/08/18 12:07:07;;;;;;;;;;;;;;;-144.99;52.28;51995.63;5087634;28;19932;-76
2022/08/18 12:09:36;;;;;;;;;;;;;;;-144.99;52.05;51967.09;5082426;28;20426;-78
2022/08/18 12:12:04;;;;;;;;;;;;;;;-144.99;51.66;51926.34;5086312;28;19920;-77
2022/08/18 12:14:33;;;;;;;;;;;;;;;-144.99;52.73;51975.25;5086119;28;20158;-78
2022/08/18 12:17:00;;;;;;;;;;;;;;;-144.99;51.01;51991.56;5085988;28;19924;-77
2022/08/18 12:19:29;;;;;;;;;;;;;;;-144.99;51.01;51928.38;5080114;28;21869;-78
2022/08/18 12:21:56;;;;;;;;;;;;;;;-144.99;49.97;51885.56;5093300;28;19920;-77
2022/08/18 12:24:25;;;;;;;;;;;;;;;-144.99;48.71;52020.09;5094284;28;20051;-78
2022/08/18 12:26:52;;;;;;;;;;;;;;;-144.99;49.04;51905.97;5093159;28;20223;-78
2022/08/18 12:29:19;;;;;;;;;;;;;;;-144.99;48.82;52024.16;5092060;28;19927;-78
2022/08/18 12:31:45;;;;;;;;;;;;;;;-144.99;49.51;51987.47;5095976;28;19928;-78
2022/08/18 12:34:12;;;;;;;;;;;;;;;-144.99;49.67;51983.41;5092560;28;19969;-79
2022/08/18 12:36:39;;;;;;;;;;;;;;;-144.99;48.84;51975.25;5090097;28;19983;-79
2022/08/18 12:39:06;;;;;;;;;;;;;;;-144.99;49.27;52020.09;5090986;28;19927;-78
2022/08/18 12:41:33;;;;;;;;;;;;;;;-144.99;48.58;52016.00;5088529;28;20370;-78
2022/08/18 12:44:00;;;;;;;;;;;;;;;-144.99;48.77;51983.41;5092082;28;20018;-79
2022/08/18 12:46:26;;;;;;;;;;;;;;;-144.99;48.15;52032.31;5092853;28;20322;-78
2022/08/18 12:48:53;;;;;;;;;;;;;;;-144.99;47.68;51924.28;5090193;28;20007;-78
2022/08/18 12:51:19;;;;;;;;;;;;;;;-144.99;47.24;51999.69;5088202;28;19921;-77